Time;durP1;ratioP1;P1;durP2;ratioP2;P2;SDS_P1;SDS_P2;PMS_P1;PMS_P2;Temp;Humidity;BMP_temperature;BMP_pressure;BME280_temperature;BME280_humidity;BME280_pressure;Samples;Min_cycle;Max_cycle;Signal;HPM_P1;HPM_P2
2023/04/15 00:01:22;;;;;;;11.63;9.35;;;7.50;99.90;;;;;;4652628;28;10000230;-71
2023/04/15 00:03:51;;;;;;;12.52;9.50;;;7.50;99.90;;;;;;4995993;28;20280;-71
2023/04/15 00:06:18;;;;;;;10.38;8.98;;;7.40;99.90;;;;;;4995644;28;20026;-70
2023/04/15 00:08:44;;;;;;;11.45;8.90;;;7.40;99.90;;;;;;5002930;28;20460;-71
2023/04/15 00:11:10;;;;;;;10.32;8.00;;;7.40;99.90;;;;;;5003266;28;20065;-71
2023/04/15 00:13:35;;;;;;;12.05;8.40;;;7.50;99.90;;;;;;4991984;28;20082;-71
2023/04/15 00:16:01;;;;;;;9.02;7.32;;;7.50;99.90;;;;;;5004582;28;20029;-71
2023/04/15 00:18:28;;;;;;;9.50;7.55;;;7.60;99.90;;;;;;4987560;28;20088;-71
2023/04/15 00:20:54;;;;;;;8.10;6.93;;;7.70;99.90;;;;;;4999571;28;20046;-70
2023/04/15 00:23:19;;;;;;;11.00;7.30;;;7.80;99.90;;;;;;4994548;28;20037;-70
2023/04/15 00:25:45;;;;;;;8.57;7.03;;;7.80;99.90;;;;;;4997039;28;20500;-70
2023/04/15 00:28:11;;;;;;;10.95;7.78;;;7.90;99.90;;;;;;4995418;28;20033;-71
2023/04/15 00:30:36;;;;;;;8.30;7.45;;;7.80;99.90;;;;;;5001511;28;20104;-70
2023/04/15 00:33:02;;;;;;;11.45;8.90;;;7.70;99.90;;;;;;4995814;28;20033;-70
2023/04/15 00:35:29;;;;;;;10.77;8.73;;;7.60;99.90;;;;;;5001259;28;20102;-70
2023/04/15 00:37:54;;;;;;;10.73;8.70;;;7.50;99.90;;;;;;4995347;28;20057;-70
2023/04/15 00:40:20;;;;;;;14.20;9.93;;;7.40;99.90;;;;;;4992201;28;20026;-70
2023/04/15 00:42:46;;;;;;;12.82;10.55;;;7.30;99.90;;;;;;5000266;28;20037;-70
2023/04/15 00:45:12;;;;;;;11.25;9.80;;;7.20;99.90;;;;;;5003942;28;20046;-70
2023/04/15 00:47:40;;;;;;;12.23;10.15;;;7.10;99.90;;;;;;4999269;28;20080;-70
2023/04/15 00:50:06;;;;;;;13.68;11.43;;;7.00;99.90;;;;;;4998391;28;20453;-70
2023/04/15 00:52:33;;;;;;;14.88;11.35;;;7.00;99.90;;;;;;5000770;28;20172;-70
2023/04/15 00:54:59;;;;;;;13.15;11.25;;;6.90;99.90;;;;;;5002046;28;20038;-70
2023/04/15 00:57:27;;;;;;;13.85;11.07;;;6.90;99.90;;;;;;5004320;28;20088;-70
2023/04/15 00:59:54;;;;;;;14.23;11.43;;;6.80;99.90;;;;;;4996017;28;20041;-70
2023/04/15 01:02:21;;;;;;;14.38;11.75;;;6.70;99.90;;;;;;5000315;28;20113;-70
2023/04/15 01:04:47;;;;;;;15.10;11.07;;;6.80;99.90;;;;;;4996232;28;20045;-70
2023/04/15 01:07:13;;;;;;;13.20;10.27;;;6.70;99.90;;;;;;4996612;28;20113;-70
2023/04/15 01:09:39;;;;;;;16.13;10.98;;;6.70;99.90;;;;;;5001329;28;20450;-70
2023/04/15 01:12:09;;;;;;;13.25;9.90;;;6.70;99.90;;;;;;4999132;28;20048;-70
2023/04/15 01:14:35;;;;;;;11.82;10.23;;;6.60;99.90;;;;;;5006617;28;20718;-70
2023/04/15 01:17:01;;;;;;;12.77;10.05;;;6.60;99.90;;;;;;5001178;28;20030;-70
2023/04/15 01:19:27;;;;;;;14.27;10.68;;;6.60;99.90;;;;;;4992786;28;20396;-70
2023/04/15 01:21:53;;;;;;;14.02;11.00;;;6.50;99.90;;;;;;4996259;28;20021;-70
2023/04/15 01:24:18;;;;;;;13.80;11.68;;;6.50;99.90;;;;;;4994001;28;20041;-70
2023/04/15 01:26:45;;;;;;;13.60;11.52;;;6.40;99.90;;;;;;4999980;28;20038;-70
2023/04/15 01:29:12;;;;;;;14.55;11.40;;;6.40;99.90;;;;;;5002825;28;20081;-70
2023/04/15 01:31:37;;;;;;;11.25;9.52;;;6.40;99.90;;;;;;5000308;28;20451;-70
2023/04/15 01:34:03;;;;;;;15.88;10.63;;;6.40;99.90;;;;;;5002645;28;20084;-70
2023/04/15 01:36:29;;;;;;;14.73;11.15;;;6.40;99.90;;;;;;4999076;28;20038;-70
2023/04/15 01:38:56;;;;;;;15.30;11.10;;;6.40;99.90;;;;;;5003289;28;20025;-70
2023/04/15 01:41:28;;;;;;;12.13;9.80;;;6.40;99.90;;;;;;5001338;28;20116;-71
2023/04/15 01:43:54;;;;;;;15.02;11.60;;;6.40;99.90;;;;;;5005262;28;20049;-70
2023/04/15 01:46:20;;;;;;;14.20;11.88;;;6.40;99.90;;;;;;5006370;28;20514;-70
2023/04/15 01:48:46;;;;;;;13.80;11.80;;;6.40;99.90;;;;;;5003557;28;20029;-70
2023/04/15 01:51:11;;;;;;;13.15;10.95;;;6.40;99.90;;;;;;5004535;28;20026;-70
2023/04/15 01:53:37;;;;;;;13.07;10.93;;;6.50;99.90;;;;;;5000308;28;20157;-70
2023/04/15 01:56:03;;;;;;;13.32;10.70;;;6.40;99.90;;;;;;4998307;28;20049;-70
2023/04/15 01:58:29;;;;;;;14.20;10.93;;;6.50;99.90;;;;;;4998937;28;20026;-70
2023/04/15 02:00:54;;;;;;;13.93;11.13;;;6.50;99.90;;;;;;4998642;28;20787;-70
2023/04/15 02:03:20;;;;;;;13.80;10.60;;;6.50;99.90;;;;;;5007239;28;20037;-70
2023/04/15 02:05:46;;;;;;;12.77;10.45;;;6.50;99.90;;;;;;5006057;28;20049;-70
2023/04/15 02:08:12;;;;;;;12.75;10.57;;;6.50;99.90;;;;;;4999680;28;20030;-70
2023/04/15 02:10:38;;;;;;;14.35;10.63;;;6.50;99.90;;;;;;5001993;28;20084;-70
2023/04/15 02:13:04;;;;;;;14.85;11.27;;;6.40;99.90;;;;;;5001202;28;20386;-70
2023/04/15 02:15:29;;;;;;;13.35;11.27;;;6.40;99.90;;;;;;5004304;28;20125;-70
2023/04/15 02:17:55;;;;;;;13.57;11.05;;;6.40;99.90;;;;;;4999288;28;20049;-70
2023/04/15 02:20:22;;;;;;;15.52;11.50;;;6.30;99.90;;;;;;5003976;28;20028;-70
2023/04/15 02:22:48;;;;;;;15.20;10.70;;;6.30;99.90;;;;;;5000008;28;20037;-70
2023/04/15 02:25:15;;;;;;;14.95;10.55;;;6.30;99.90;;;;;;5002446;28;20084;-70
2023/04/15 02:27:43;;;;;;;14.77;11.68;;;6.30;99.90;;;;;;4994792;28;20080;-70
2023/04/15 02:30:09;;;;;;;14.05;11.27;;;6.30;99.90;;;;;;4998983;28;20037;-70
2023/04/15 02:32:36;;;;;;;14.10;11.52;;;6.20;99.90;;;;;;4994321;28;20390;-70
2023/04/15 02:35:06;;;;;;;14.68;10.80;;;6.20;99.90;;;;;;5010909;28;20247;-70
2023/04/15 02:37:37;;;;;;;13.55;11.02;;;6.20;99.90;;;;;;4998503;28;20022;-70
2023/04/15 02:40:03;;;;;;;13.38;11.27;;;6.20;99.90;;;;;;5004982;28;20033;-70
2023/04/15 02:42:30;;;;;;;15.20;11.00;;;6.20;99.90;;;;;;4992883;28;20042;-70
2023/04/15 02:44:57;;;;;;;16.50;11.77;;;6.20;99.90;;;;;;5004244;28;20045;-70
2023/04/15 02:47:22;;;;;;;17.38;13.20;;;6.20;99.90;;;;;;5000406;28;20502;-70
2023/04/15 02:49:48;;;;;;;17.45;13.98;;;6.20;99.90;;;;;;5001992;28;20022;-70
2023/04/15 02:52:13;;;;;;;17.25;13.45;;;6.20;99.90;;;;;;4999516;28;20108;-70
2023/04/15 02:54:39;;;;;;;17.27;13.43;;;6.10;99.90;;;;;;5004001;28;20022;-70
2023/04/15 02:57:05;;;;;;;18.98;14.02;;;6.10;99.90;;;;;;4999351;28;20031;-70
2023/04/15 02:59:31;;;;;;;18.92;14.32;;;6.10;99.90;;;;;;5005283;28;20057;-70
2023/04/15 03:01:59;;;;;;;18.58;14.10;;;6.10;99.90;;;;;;5000044;28;20119;-70
2023/04/15 03:04:25;;;;;;;19.20;14.35;;;6.00;99.90;;;;;;5003677;28;20046;-70
2023/04/15 03:06:51;;;;;;;16.73;14.07;;;6.00;99.90;;;;;;5000185;28;20097;-70
2023/04/15 03:09:16;;;;;;;16.60;12.85;;;6.00;99.90;;;;;;4999663;28;20030;-70
2023/04/15 03:11:42;;;;;;;15.13;12.50;;;6.00;99.90;;;;;;5002324;28;20022;-70
2023/04/15 03:14:08;;;;;;;14.20;11.18;;;5.90;99.90;;;;;;5001110;28;20459;-70
2023/04/15 03:16:33;;;;;;;16.83;10.90;;;6.00;99.90;;;;;;5001122;28;20129;-69
2023/04/15 03:18:59;;;;;;;14.43;10.70;;;5.90;99.90;;;;;;5003759;28;20109;-70
2023/04/15 03:21:25;;;;;;;15.05;11.32;;;5.90;99.90;;;;;;5003739;28;20029;-70
2023/04/15 03:23:51;;;;;;;14.52;11.18;;;5.90;99.90;;;;;;4995566;28;20109;-69
2023/04/15 03:26:25;;;;;;;14.93;11.30;;;5.90;99.90;;;;;;4993948;28;20590;-70
2023/04/15 03:28:50;;;;;;;15.10;11.57;;;5.80;99.90;;;;;;5000681;28;20522;-70
2023/04/15 03:31:16;;;;;;;14.18;10.95;;;5.80;99.90;;;;;;5000473;28;20026;-70
2023/04/15 03:33:41;;;;;;;14.48;11.32;;;5.80;99.90;;;;;;5002982;28;20111;-70
2023/04/15 03:36:07;;;;;;;14.68;11.50;;;5.80;99.90;;;;;;4996932;28;20470;-70
2023/04/15 03:38:32;;;;;;;15.50;12.13;;;5.80;99.90;;;;;;5004601;28;20385;-70
2023/04/15 03:40:58;;;;;;;16.23;12.50;;;5.80;99.90;;;;;;4998234;28;20037;-70
2023/04/15 03:43:24;;;;;;;14.75;11.10;;;5.80;99.90;;;;;;4996903;28;20036;-70
2023/04/15 03:45:49;;;;;;;14.05;11.43;;;5.80;99.90;;;;;;4997007;28;20086;-70
2023/04/15 03:48:15;;;;;;;14.73;11.30;;;5.70;99.90;;;;;;4996324;28;20337;-70
2023/04/15 03:50:40;;;;;;;16.27;11.85;;;5.70;99.90;;;;;;4994178;28;20030;-70
2023/04/15 03:53:06;;;;;;;16.15;11.90;;;5.70;99.90;;;;;;5000575;28;20029;-70
2023/04/15 03:55:31;;;;;;;15.38;11.52;;;5.70;99.90;;;;;;4996205;28;20160;-70
2023/04/15 03:57:57;;;;;;;14.02;11.27;;;5.60;99.90;;;;;;4994799;28;20686;-70
2023/04/15 04:00:22;;;;;;;16.60;11.65;;;5.60;99.90;;;;;;4994557;28;20065;-70
2023/04/15 04:02:48;;;;;;;17.23;12.70;;;5.60;99.90;;;;;;4997529;28;20038;-70
2023/04/15 04:05:14;;;;;;;18.98;13.43;;;5.60;99.90;;;;;;5002805;28;20161;-70
2023/04/15 04:07:39;;;;;;;18.90;13.32;;;5.60;99.90;;;;;;4995139;28;20057;-70
2023/04/15 04:10:06;;;;;;;22.63;14.73;;;5.70;99.90;;;;;;4999427;28;20034;-70
2023/04/15 04:12:31;;;;;;;21.10;14.65;;;5.80;99.90;;;;;;5003356;28;20026;-70
2023/04/15 04:14:57;;;;;;;18.98;14.50;;;5.90;99.90;;;;;;5001534;28;20033;-70
2023/04/15 04:17:22;;;;;;;19.70;13.98;;;6.00;99.90;;;;;;5003761;28;20037;-69
2023/04/15 04:19:48;;;;;;;19.00;14.27;;;6.10;99.90;;;;;;4988404;28;20418;-69
2023/04/15 04:22:13;;;;;;;19.42;14.63;;;6.20;99.90;;;;;;5001422;28;20030;-69
2023/04/15 04:24:39;;;;;;;20.27;14.73;;;6.20;99.90;;;;;;5000321;28;20504;-69
2023/04/15 04:27:05;;;;;;;19.67;14.63;;;6.30;99.90;;;;;;5003257;28;20030;-69
2023/04/15 04:29:30;;;;;;;22.50;15.13;;;6.40;99.90;;;;;;5002619;28;20029;-69
2023/04/15 04:31:56;;;;;;;19.45;13.88;;;6.40;99.90;;;;;;4996672;28;20030;-69
2023/04/15 04:34:21;;;;;;;20.15;14.63;;;6.50;99.90;;;;;;4999462;28;20104;-69
2023/04/15 04:36:47;;;;;;;21.58;16.40;;;6.50;99.90;;;;;;4995466;28;20076;-69
2023/04/15 04:39:12;;;;;;;20.63;15.25;;;6.50;99.90;;;;;;5003048;28;20389;-69
2023/04/15 04:41:38;;;;;;;20.77;15.63;;;6.50;99.90;;;;;;4998425;28;20038;-70
2023/04/15 04:44:04;;;;;;;20.33;15.35;;;6.50;99.90;;;;;;5001522;28;20029;-69
2023/04/15 04:46:29;;;;;;;20.67;15.50;;;6.60;99.90;;;;;;5003511;28;20109;-69
2023/04/15 04:48:55;;;;;;;19.80;15.30;;;6.50;99.90;;;;;;4995001;28;20033;-69
2023/04/15 04:51:20;;;;;;;20.30;15.30;;;6.50;99.90;;;;;;5003344;28;20026;-69
2023/04/15 04:53:46;;;;;;;20.27;15.18;;;6.50;99.90;;;;;;4994379;28;20112;-69
2023/04/15 04:56:11;;;;;;;21.08;15.15;;;6.60;99.90;;;;;;4993183;28;20042;-70
2023/04/15 04:58:37;;;;;;;20.33;15.10;;;6.60;99.90;;;;;;4988131;28;20034;-69
2023/04/15 05:01:03;;;;;;;17.65;13.65;;;6.80;99.90;;;;;;4998348;28;20501;-69
2023/04/15 05:03:28;;;;;;;18.80;14.13;;;6.70;99.90;;;;;;4988573;28;20038;-70
2023/04/15 05:05:54;;;;;;;18.70;13.82;;;6.70;99.90;;;;;;4988950;28;20089;-70
2023/04/15 05:08:20;;;;;;;18.13;13.82;;;6.70;99.90;;;;;;4995937;28;20018;-70
2023/04/15 05:10:46;;;;;;;16.35;13.18;;;6.70;99.90;;;;;;5003623;28;20030;-70
2023/04/15 05:13:11;;;;;;;21.60;15.27;;;6.60;99.90;;;;;;5002344;28;20022;-71
2023/04/15 05:15:40;;;;;;;18.42;14.15;;;6.60;99.90;;;;;;5001572;28;20066;-70
2023/04/15 05:18:05;;;;;;;20.00;15.73;;;6.60;99.90;;;;;;5003892;28;20026;-70
2023/04/15 05:20:31;;;;;;;22.00;16.30;;;6.50;99.90;;;;;;4994055;28;20041;-71
2023/04/15 05:22:56;;;;;;;21.08;15.18;;;6.50;99.90;;;;;;5001438;28;20033;-71
2023/04/15 05:25:22;;;;;;;20.58;15.30;;;6.40;99.90;;;;;;5006701;28;20402;-72
2023/04/15 05:27:47;;;;;;;20.58;15.90;;;6.40;99.90;;;;;;4995436;28;20045;-71
2023/04/15 05:30:13;;;;;;;19.15;15.25;;;6.40;99.90;;;;;;4995222;28;21009;-72
2023/04/15 05:32:39;;;;;;;23.63;17.83;;;6.40;99.90;;;;;;5001705;28;20029;-70
2023/04/15 05:35:05;;;;;;;26.35;17.70;;;6.40;99.90;;;;;;5006209;28;20041;-70
2023/04/15 05:37:30;;;;;;;24.33;16.95;;;6.50;99.90;;;;;;4997681;28;20030;-70
2023/04/15 05:39:56;;;;;;;22.42;17.13;;;6.60;99.90;;;;;;5004526;28;20113;-70
2023/04/15 05:42:22;;;;;;;23.38;16.85;;;6.80;99.90;;;;;;4991938;28;20030;-70
2023/04/15 05:48:01;;;;;;;;;;;6.80;99.90;;;;;;5009921;28;20537;-72
2023/04/15 05:50:27;;;;;;;22.10;15.02;;;7.00;99.90;;;;;;5001719;28;19910;-71
2023/04/15 05:52:53;;;;;;;24.60;16.55;;;7.00;99.90;;;;;;5007380;28;20028;-72
2023/04/15 05:55:18;;;;;;;22.58;15.38;;;7.10;99.90;;;;;;4999511;28;20026;-72
2023/04/15 05:57:44;;;;;;;21.67;14.95;;;7.20;99.90;;;;;;5004504;28;20516;-71
2023/04/15 06:00:10;;;;;;;21.08;15.63;;;7.30;99.90;;;;;;5006082;28;20025;-72
2023/04/15 06:02:36;;;;;;;20.75;15.05;;;7.30;99.90;;;;;;5004142;28;20038;-72
2023/04/15 06:05:02;;;;;;;22.65;15.68;;;7.40;99.90;;;;;;5010384;28;20033;-71
2023/04/15 06:07:28;;;;;;;23.23;15.88;;;7.40;99.90;;;;;;5007232;28;20405;-72
2023/04/15 06:09:53;;;;;;;21.80;15.02;;;7.50;99.90;;;;;;4991366;28;20023;-72
2023/04/15 06:12:19;;;;;;;19.52;14.45;;;7.50;99.90;;;;;;5003298;28;20485;-72
2023/04/15 06:14:44;;;;;;;20.15;14.88;;;7.60;99.90;;;;;;4997381;28;20427;-72
2023/04/15 06:17:10;;;;;;;20.98;14.63;;;7.60;99.90;;;;;;5003734;28;20022;-72
2023/04/15 06:19:36;;;;;;;23.27;14.63;;;7.60;99.90;;;;;;5008428;28;20164;-71
2023/04/15 06:22:02;;;;;;;20.60;14.55;;;7.60;99.90;;;;;;5010142;28;20100;-74
2023/04/15 06:24:28;;;;;;;20.38;15.15;;;7.60;99.90;;;;;;5006132;28;20068;-74
2023/04/15 06:26:53;;;;;;;18.27;13.18;;;7.60;99.90;;;;;;4990689;28;20429;-74
2023/04/15 06:29:19;;;;;;;19.63;13.75;;;7.60;99.90;;;;;;5008844;28;20053;-73
2023/04/15 06:31:48;;;;;;;21.42;14.30;;;7.50;99.90;;;;;;5009999;28;20509;-74
2023/04/15 06:34:13;;;;;;;18.92;14.40;;;7.50;99.90;;;;;;5006894;28;20033;-73
2023/04/15 06:36:39;;;;;;;19.85;14.60;;;7.50;99.90;;;;;;5007604;28;20034;-73
2023/04/15 06:39:04;;;;;;;22.38;14.50;;;7.50;99.90;;;;;;5005590;28;20037;-72
2023/04/15 06:41:30;;;;;;;18.02;13.57;;;7.50;99.90;;;;;;5006453;28;20504;-73
2023/04/15 06:43:56;;;;;;;19.77;14.05;;;7.40;99.90;;;;;;5006091;28;20505;-73
2023/04/15 06:46:21;;;;;;;19.90;14.10;;;7.40;99.90;;;;;;5007978;28;20524;-72
2023/04/15 06:48:47;;;;;;;19.98;13.73;;;7.50;99.90;;;;;;5005962;28;20037;-73
2023/04/15 06:51:13;;;;;;;20.00;13.35;;;7.50;99.90;;;;;;5005153;28;20025;-73
2023/04/15 06:53:40;;;;;;;20.02;13.50;;;7.50;99.90;;;;;;5006737;28;20284;-73
2023/04/15 06:56:08;;;;;;;17.83;12.95;;;7.50;99.90;;;;;;5007309;28;20121;-73
2023/04/15 06:58:34;;;;;;;18.98;13.70;;;7.50;99.90;;;;;;5008087;28;20556;-72
2023/04/15 07:01:00;;;;;;;20.50;13.25;;;7.50;99.90;;;;;;4997543;28;20042;-74
2023/04/15 07:03:26;;;;;;;17.73;13.40;;;7.50;99.90;;;;;;4999765;28;20449;-72
2023/04/15 07:05:51;;;;;;;19.67;14.00;;;7.50;99.90;;;;;;5005963;28;20030;-73
2023/04/15 07:08:17;;;;;;;19.17;13.18;;;7.50;99.90;;;;;;5004223;28;20379;-73
2023/04/15 07:10:43;;;;;;;19.23;13.35;;;7.50;99.90;;;;;;5009306;28;20316;-73
2023/04/15 07:13:09;;;;;;;18.10;12.70;;;7.60;99.90;;;;;;5004846;28;20038;-73
2023/04/15 07:15:34;;;;;;;18.85;12.65;;;7.50;99.90;;;;;;5006245;28;20332;-73
2023/04/15 07:18:00;;;;;;;18.02;12.40;;;7.60;99.90;;;;;;5008804;28;20030;-73
2023/04/15 07:20:26;;;;;;;19.25;12.57;;;7.50;99.90;;;;;;4998466;28;20096;-73
2023/04/15 07:22:52;;;;;;;17.45;12.68;;;7.50;99.90;;;;;;4994092;28;20029;-72
2023/04/15 07:25:17;;;;;;;18.63;13.05;;;7.50;99.90;;;;;;5008644;28;20619;-73
2023/04/15 07:27:43;;;;;;;19.83;13.80;;;7.50;99.90;;;;;;4996861;28;20504;-73
2023/04/15 07:30:09;;;;;;;20.25;14.23;;;7.50;99.90;;;;;;5008988;28;20032;-73
2023/04/15 07:32:35;;;;;;;19.65;14.15;;;7.50;99.90;;;;;;5000498;28;20058;-73
2023/04/15 07:35:02;;;;;;;21.30;14.55;;;7.50;99.90;;;;;;5007941;28;20112;-73
2023/04/15 07:37:28;;;;;;;21.73;14.63;;;7.50;99.90;;;;;;5008955;28;20037;-73
2023/04/15 07:39:54;;;;;;;21.20;14.80;;;7.50;99.90;;;;;;5006104;28;20034;-73
2023/04/15 07:42:20;;;;;;;21.50;15.27;;;7.40;99.90;;;;;;4997473;28;20037;-73
2023/04/15 07:44:45;;;;;;;23.60;16.15;;;7.40;99.90;;;;;;5003597;28;20038;-72
2023/04/15 07:47:11;;;;;;;23.05;16.25;;;7.40;99.90;;;;;;5008692;28;20038;-72
2023/04/15 07:49:37;;;;;;;24.67;16.42;;;7.40;99.90;;;;;;5005990;28;20030;-72
2023/04/15 07:52:03;;;;;;;24.77;16.98;;;;;;;;;;4993190;28;20084;-72
2023/04/15 07:54:29;;;;;;;24.27;17.00;;;;;;;;;;5006654;28;20516;-73
2023/04/15 07:56:55;;;;;;;25.95;18.20;;;7.60;99.90;;;;;;4988831;28;20022;-73
2023/04/15 07:59:21;;;;;;;29.48;18.20;;;7.40;99.90;;;;;;4996838;28;20040;-72
2023/04/15 08:01:47;;;;;;;26.83;18.10;;;7.50;99.90;;;;;;4999804;28;20037;-72
2023/04/15 08:04:13;;;;;;;27.38;18.90;;;7.50;99.90;;;;;;5002761;28;20381;-72
2023/04/15 08:06:39;;;;;;;26.40;18.35;;;7.50;99.90;;;;;;5007785;28;20393;-72
2023/04/15 08:09:05;;;;;;;26.35;18.25;;;7.50;99.90;;;;;;4988967;28;20018;-72
2023/04/15 08:11:31;;;;;;;27.48;18.38;;;7.50;99.90;;;;;;5002023;28;20123;-73
2023/04/15 08:13:57;;;;;;;25.48;16.77;;;7.60;99.90;;;;;;4997404;28;20117;-73
2023/04/15 08:16:26;;;;;;;24.67;17.10;;;7.60;99.90;;;;;;5001088;28;20510;-73
2023/04/15 08:18:52;;;;;;;25.30;17.55;;;7.50;99.90;;;;;;5005508;28;20034;-72
2023/04/15 08:21:19;;;;;;;25.98;18.17;;;7.60;99.90;;;;;;5007441;28;20026;-72
2023/04/15 08:23:47;;;;;;;22.77;16.10;;;7.60;99.90;;;;;;5006010;28;20092;-72
2023/04/15 08:26:13;;;;;;;25.17;16.40;;;7.70;99.90;;;;;;4999971;28;20635;-72
2023/04/15 08:28:40;;;;;;;27.02;16.50;;;7.70;99.90;;;;;;5001538;28;20026;-73
2023/04/15 08:31:06;;;;;;;21.45;15.65;;;7.80;99.90;;;;;;4992567;28;20026;-72
2023/04/15 08:33:32;;;;;;;21.90;14.80;;;7.90;99.90;;;;;;5006088;28;20053;-72
2023/04/15 08:35:57;;;;;;;24.80;16.05;;;7.80;99.90;;;;;;5004759;28;20572;-73
2023/04/15 08:38:23;;;;;;;22.02;15.52;;;7.90;99.90;;;;;;5003082;28;20064;-72
2023/04/15 08:40:48;;;;;;;21.08;14.38;;;7.90;99.90;;;;;;4987695;28;20061;-73
2023/04/15 08:43:20;;;;;;;19.85;14.52;;;8.00;99.90;;;;;;4983122;28;20032;-73
2023/04/15 08:45:47;;;;;;;20.90;14.60;;;8.00;99.90;;;;;;5011284;28;20096;-73
2023/04/15 08:48:15;;;;;;;20.25;14.32;;;8.10;99.90;;;;;;5007976;28;20040;-73
2023/04/15 08:50:41;;;;;;;21.73;14.13;;;8.10;99.90;;;;;;5010690;28;20036;-73
2023/04/15 08:53:09;;;;;;;18.48;13.20;;;8.10;99.90;;;;;;5009380;28;20030;-72
2023/04/15 08:55:38;;;;;;;19.70;13.48;;;8.10;99.90;;;;;;5004877;28;20030;-73
2023/04/15 08:58:06;;;;;;;20.02;13.52;;;8.00;99.90;;;;;;5005281;28;20053;-72
2023/04/15 09:00:32;;;;;;;17.75;13.00;;;8.10;99.90;;;;;;5007704;28;20061;-72
2023/04/15 09:02:58;;;;;;;18.67;12.80;;;8.10;99.90;;;;;;4992385;28;20506;-72
2023/04/15 09:05:24;;;;;;;18.65;13.27;;;8.10;99.90;;;;;;4991704;28;20045;-72
2023/04/15 09:07:50;;;;;;;15.43;11.90;;;8.10;99.90;;;;;;5004511;28;20025;-72
2023/04/15 09:10:16;;;;;;;17.85;13.15;;;8.10;99.90;;;;;;5008790;28;20104;-73
2023/04/15 09:12:42;;;;;;;17.05;11.85;;;8.20;99.90;;;;;;5006488;28;20482;-73
2023/04/15 09:15:11;;;;;;;15.52;11.68;;;8.20;99.90;;;;;;4999189;28;20042;-73
2023/04/15 09:17:42;;;;;;;15.88;11.05;;;8.30;99.90;;;;;;4993899;28;20038;-72
2023/04/15 09:20:13;;;;;;;14.02;10.68;;;8.40;99.90;;;;;;5007298;28;20345;-73
2023/04/15 09:22:39;;;;;;;15.23;11.10;;;8.50;99.90;;;;;;5007971;28;20092;-73
2023/04/15 09:25:14;;;;;;;13.05;9.98;;;8.50;99.90;;;;;;4997598;28;20030;-72
2023/04/15 09:28:00;;;;;;;12.93;9.57;;;8.50;99.90;;;;;;4991113;28;20320;-72
2023/04/15 09:30:29;;;;;;;12.57;9.23;;;8.50;99.90;;;;;;5001998;28;20545;-74
2023/04/15 09:32:59;;;;;;;12.27;9.30;;;8.40;99.90;;;;;;5005577;28;20511;-72
2023/04/15 09:35:26;;;;;;;11.95;9.23;;;8.40;99.90;;;;;;5009344;28;20096;-73
2023/04/15 09:37:53;;;;;;;11.75;9.02;;;8.30;99.90;;;;;;5006973;28;20036;-73
2023/04/15 09:40:32;;;;;;;11.02;8.68;;;8.30;99.90;;;;;;5007071;28;20116;-72
2023/04/15 09:42:58;;;;;;;11.88;8.70;;;8.20;99.90;;;;;;5007859;28;20116;-72
2023/04/15 09:45:24;;;;;;;12.95;8.98;;;8.00;99.90;;;;;;5006340;28;20077;-72
2023/04/15 09:47:50;;;;;;;12.77;9.18;;;7.90;99.90;;;;;;5011055;28;20060;-72
2023/04/15 09:50:16;;;;;;;10.98;8.38;;;7.80;99.90;;;;;;4997464;28;20152;-72
2023/04/15 09:52:43;;;;;;;10.75;8.45;;;7.80;99.90;;;;;;5001161;28;20480;-73
2023/04/15 09:55:10;;;;;;;11.73;8.00;;;7.80;99.90;;;;;;5002886;28;20076;-72
2023/04/15 09:57:37;;;;;;;10.60;8.38;;;7.80;99.90;;;;;;5010697;28;20120;-71
2023/04/15 10:00:07;;;;;;;11.48;8.52;;;7.90;99.90;;;;;;5009166;28;20382;-72
2023/04/15 10:02:34;;;;;;;10.10;7.65;;;7.90;99.90;;;;;;5004325;28;20026;-72
2023/04/15 10:05:01;;;;;;;10.90;7.90;;;7.90;99.90;;;;;;4994586;28;20548;-72
2023/04/15 10:07:27;;;;;;;11.75;8.77;;;7.80;99.90;;;;;;5006646;28;20080;-72
2023/04/15 10:09:53;;;;;;;10.20;7.68;;;7.80;99.90;;;;;;5007014;28;20018;-73
2023/04/15 10:12:19;;;;;;;11.93;8.02;;;7.70;99.90;;;;;;5009072;28;20109;-73
2023/04/15 10:14:51;;;;;;;10.70;7.57;;;7.80;99.90;;;;;;5005722;28;20110;-72
2023/04/15 10:17:20;;;;;;;11.73;8.35;;;7.80;99.90;;;;;;5010189;28;20474;-72
2023/04/15 10:19:48;;;;;;;9.75;7.57;;;7.80;99.90;;;;;;5010072;28;20037;-73
2023/04/15 10:22:14;;;;;;;8.13;6.60;;;7.80;99.90;;;;;;5007768;28;20046;-72
2023/04/15 10:24:40;;;;;;;7.25;5.97;;;7.80;99.90;;;;;;5002298;28;20045;-73
2023/04/15 10:27:06;;;;;;;10.02;6.60;;;7.80;99.90;;;;;;5005597;28;20037;-72
2023/04/15 10:29:32;;;;;;;7.68;5.97;;;7.80;99.90;;;;;;5008721;28;20025;-72
2023/04/15 10:31:59;;;;;;;7.22;6.13;;;7.80;99.90;;;;;;5005607;28;20482;-73
2023/04/15 10:34:26;;;;;;;7.75;5.53;;;7.80;99.90;;;;;;5006408;28;20557;-72
2023/04/15 10:36:56;;;;;;;7.63;5.53;;;7.80;99.90;;;;;;5009868;28;20034;-73
2023/04/15 10:39:34;;;;;;;6.95;5.60;;;;;;;;;;4993317;28;20310;-73
2023/04/15 10:42:07;;;;;;;7.57;5.85;;;;;;;;;;4996229;28;20036;-73
2023/04/15 10:44:33;;;;;;;7.95;5.95;;;;;;;;;;5002187;28;20044;-73
2023/04/15 10:46:59;;;;;;;10.30;7.20;;;;;;;;;;5009411;28;20034;-74
2023/04/15 10:49:25;;;;;;;5.60;5.03;;;;;;;;;;4999896;28;20494;-73
2023/04/15 10:51:52;;;;;;;6.25;5.03;;;;;;;;;;5002039;28;20034;-72
2023/04/15 10:54:24;;;;;;;6.05;5.00;;;7.90;99.90;;;;;;5007703;28;20036;-72
2023/04/15 10:57:05;;;;;;;5.97;4.60;;;7.80;99.90;;;;;;5004977;28;20030;-72
2023/04/15 10:59:31;;;;;;;5.28;4.40;;;7.70;99.90;;;;;;4991103;28;20030;-72
2023/04/15 11:02:01;;;;;;;5.00;4.22;;;7.70;99.90;;;;;;5009172;28;20030;-72
2023/04/15 11:04:52;;;;;;;5.53;4.50;;;7.70;99.90;;;;;;5004377;28;20025;-72
2023/04/15 11:07:45;;;;;;;5.03;4.15;;;7.80;99.90;;;;;;5007969;28;20022;-72
2023/04/15 11:10:31;;;;;;;5.43;4.47;;;7.80;99.90;;;;;;5009243;28;20022;-73
2023/04/15 11:12:58;;;;;;;5.90;4.05;;;;;;;;;;5004625;28;20125;-72
2023/04/15 11:15:36;;;;;;;4.55;3.72;;;7.90;99.90;;;;;;4992293;28;20552;-72
2023/04/15 11:18:17;;;;;;;4.53;3.58;;;7.80;99.90;;;;;;4989122;28;20449;-72
2023/04/15 11:20:53;;;;;;;4.47;3.65;;;7.80;99.90;;;;;;4989424;28;20036;-72
2023/04/15 11:23:42;;;;;;;3.58;3.10;;;7.70;99.90;;;;;;4994738;28;20314;-73
2023/04/15 11:26:10;;;;;;;4.40;3.20;;;7.70;99.90;;;;;;4989266;28;20041;-73
2023/04/15 11:28:38;;;;;;;3.80;3.15;;;7.70;99.90;;;;;;4990038;28;20425;-73
2023/04/15 11:31:10;;;;;;;3.53;2.70;;;7.70;99.90;;;;;;5005238;28;20394;-73
2023/04/15 11:33:36;;;;;;;3.22;2.53;;;;;;;;;;4998723;28;20060;-73
2023/04/15 11:36:03;;;;;;;3.20;2.40;;;;;;;;;;5002884;28;20030;-73
2023/04/15 11:38:30;;;;;;;2.80;2.50;;;;;;;;;;5006520;28;20109;-73
2023/04/15 11:40:56;;;;;;;2.78;2.47;;;;;;;;;;5007372;28;20053;-73
2023/04/15 11:43:23;;;;;;;3.20;2.28;;;;;;;;;;5007338;28;20037;-73
2023/04/15 11:45:51;;;;;;;3.30;2.40;;;7.90;99.90;;;;;;5005108;28;20046;-73
2023/04/15 11:48:18;;;;;;;2.22;1.92;;;7.90;99.90;;;;;;5008251;28;20481;-73
2023/04/15 11:50:44;;;;;;;2.25;2.05;;;7.80;99.90;;;;;;4991490;28;20655;-73
2023/04/15 11:53:11;;;;;;;2.00;1.80;;;;;;;;;;5008299;28;20033;-73
2023/04/15 11:55:47;;;;;;;2.20;2.00;;;;;;;;;;5006098;28;20490;-74
2023/04/15 11:58:20;;;;;;;1.90;1.70;;;7.80;99.90;;;;;;5008152;28;20022;-73
2023/04/15 12:00:48;;;;;;;1.83;1.70;;;7.80;99.90;;;;;;5004292;28;20190;-74
2023/04/15 12:03:26;;;;;;;3.25;1.98;;;7.80;99.90;;;;;;5001912;28;20033;-74
2023/04/15 12:06:17;;;;;;;2.55;1.67;;;7.90;99.90;;;;;;4990785;28;20101;-73
2023/04/15 12:08:52;;;;;;;2.00;1.65;;;7.90;99.90;;;;;;5006215;28;20026;-74
2023/04/15 12:11:35;;;;;;;2.47;1.60;;;7.80;99.90;;;;;;5008099;28;20256;-73
2023/04/15 12:14:03;;;;;;;1.60;1.50;;;7.80;99.90;;;;;;5004620;28;20474;-73
2023/04/15 12:16:30;;;;;;;1.95;1.52;;;7.90;99.90;;;;;;4996761;28;20026;-73
2023/04/15 12:18:58;;;;;;;1.65;1.50;;;7.90;99.90;;;;;;5003353;28;20517;-73
2023/04/15 12:21:26;;;;;;;1.80;1.60;;;8.00;99.90;;;;;;4999159;28;20034;-72
2023/04/15 12:23:54;;;;;;;1.73;1.60;;;8.00;99.90;;;;;;4994748;28;20036;-72
2023/04/15 12:26:27;;;;;;;1.27;1.17;;;8.00;99.90;;;;;;4994483;28;20109;-72
2023/04/15 12:29:07;;;;;;;1.85;1.42;;;8.00;99.90;;;;;;4998756;28;20030;-73
2023/04/15 12:31:33;;;;;;;1.60;1.50;;;;;;;;;;5002432;28;20037;-72
2023/04/15 12:34:00;;;;;;;1.80;1.55;;;7.90;99.90;;;;;;5002447;28;20029;-72
2023/04/15 12:36:26;;;;;;;2.53;1.60;;;;;;;;;;4990369;28;20253;-72
2023/04/15 12:38:52;;;;;;;2.22;1.67;;;7.90;99.90;;;;;;5003513;28;20383;-72
2023/04/15 12:41:18;;;;;;;1.60;1.50;;;7.90;99.90;;;;;;5008606;28;20094;-73
2023/04/15 12:43:45;;;;;;;2.47;1.83;;;7.90;99.90;;;;;;5004099;28;20093;-72
2023/04/15 12:46:11;;;;;;;2.30;2.10;;;8.00;99.90;;;;;;4997048;28;20125;-72
2023/04/15 12:48:36;;;;;;;2.38;2.10;;;8.00;99.90;;;;;;5001154;28;20121;-72
2023/04/15 12:51:02;;;;;;;2.58;2.10;;;8.10;99.90;;;;;;5000411;28;20079;-71